createdAt,value
2023-03-19T00:01:06.534Z,8.00
2023-03-19T00:03:45.641Z,11.40
2023-03-19T00:06:15.959Z,12.60
2023-03-19T00:08:46.822Z,10.40
2023-03-19T00:11:17.215Z,13.80
2023-03-19T00:13:47.412Z,11.60
2023-03-19T00:16:18.188Z,12.30
2023-03-19T00:18:48.937Z,13.80
2023-03-19T00:21:19.677Z,11.60
2023-03-19T00:23:50.089Z,10.40
2023-03-19T00:26:20.417Z,9.50
2023-03-19T00:28:50.936Z,14.80
2023-03-19T00:31:21.269Z,15.10
2023-03-19T00:33:51.721Z,10.40
2023-03-19T00:36:23.443Z,9.90
2023-03-19T00:38:53.929Z,12.50
2023-03-19T00:41:24.053Z,11.10
2023-03-19T00:43:58.068Z,10.80
2023-03-19T00:46:28.723Z,13.60
2023-03-19T00:48:59.098Z,19.80
2023-03-19T00:51:29.699Z,12.00
2023-03-19T00:53:59.993Z,9.50
2023-03-19T00:56:30.805Z,12.20
2023-03-19T00:59:00.975Z,10.10
2023-03-19T01:01:31.713Z,10.40
2023-03-19T01:04:02.130Z,10.60
2023-03-19T01:06:32.255Z,10.30
2023-03-19T01:09:02.743Z,13.70
2023-03-19T01:11:32.830Z,11.30
2023-03-19T01:14:03.090Z,20.10
2023-03-19T01:16:34.112Z,12.40
2023-03-19T01:19:06.194Z,14.20
2023-03-19T01:21:37.489Z,11.20
2023-03-19T01:24:07.989Z,16.90
2023-03-19T01:26:38.560Z,10.40
2023-03-19T01:29:09.245Z,9.70
2023-03-19T01:31:39.476Z,14.50
2023-03-19T01:34:09.729Z,14.80
2023-03-19T01:36:40.008Z,10.30
2023-03-19T01:39:11.755Z,11.80
2023-03-19T01:41:42.059Z,15.30
2023-03-19T01:44:26.882Z,11.80
2023-03-19T01:47:00.012Z,10.90
2023-03-19T01:49:31.324Z,17.50
2023-03-19T01:52:04.886Z,10.20
2023-03-19T01:54:36.305Z,16.00
2023-03-19T01:57:10.127Z,12.90
2023-03-19T01:59:42.743Z,14.20
2023-03-19T02:02:17.333Z,11.70
2023-03-19T02:04:48.199Z,16.90
2023-03-19T02:07:19.274Z,11.90
2023-03-19T02:09:49.534Z,10.20
2023-03-19T02:12:19.903Z,12.20
2023-03-19T02:14:50.079Z,12.80
2023-03-19T02:17:22.028Z,17.40
2023-03-19T02:19:57.044Z,14.10
2023-03-19T02:22:29.831Z,11.10
2023-03-19T02:25:02.809Z,12.10
2023-03-19T02:27:32.859Z,12.10
2023-03-19T02:30:10.072Z,19.50
2023-03-19T02:32:40.498Z,9.90
2023-03-19T02:35:11.778Z,13.40
2023-03-19T02:37:42.816Z,13.10
2023-03-19T02:40:17.648Z,12.70
2023-03-19T02:42:47.985Z,19.80
2023-03-19T02:45:18.751Z,14.10
2023-03-19T02:47:49.257Z,14.00
2023-03-19T02:50:19.722Z,16.30
2023-03-19T02:52:49.900Z,10.80
2023-03-19T02:55:21.323Z,19.70
2023-03-19T02:57:51.663Z,19.90
2023-03-19T03:00:23.026Z,14.90
2023-03-19T03:02:53.273Z,18.30
2023-03-19T03:05:23.485Z,18.80
2023-03-19T03:07:54.368Z,13.50
2023-03-19T03:10:24.852Z,14.80
2023-03-19T03:12:55.118Z,14.10
2023-03-19T03:15:25.454Z,16.60
2023-03-19T03:17:56.741Z,17.80
2023-03-19T03:20:27.252Z,16.00
2023-03-19T03:22:57.462Z,13.10
2023-03-19T03:25:28.420Z,15.60
2023-03-19T03:27:59.947Z,12.70
2023-03-19T03:30:30.252Z,13.70
2023-03-19T03:33:00.560Z,15.70
2023-03-19T03:35:31.096Z,13.50
2023-03-19T03:38:01.373Z,14.10
2023-03-19T03:40:33.587Z,14.80
2023-03-19T03:43:03.952Z,16.10
2023-03-19T03:45:34.217Z,10.60
2023-03-19T03:48:04.685Z,11.50
2023-03-19T03:50:35.151Z,12.30
2023-03-19T03:53:05.828Z,12.70
2023-03-19T03:55:36.462Z,15.60
2023-03-19T03:58:07.175Z,20.70
2023-03-19T04:00:37.342Z,18.10
2023-03-19T04:03:07.525Z,14.70
2023-03-19T04:05:38.210Z,11.80
2023-03-19T04:08:09.359Z,15.20
2023-03-19T04:10:43.798Z,14.80
2023-03-19T04:13:14.384Z,17.20
2023-03-19T04:15:45.289Z,15.20
2023-03-19T04:18:15.627Z,14.40
2023-03-19T04:20:46.360Z,16.20
2023-03-19T04:23:17.110Z,14.80
2023-03-19T04:25:48.301Z,14.80
2023-03-19T04:28:18.364Z,22.30
2023-03-19T04:30:48.915Z,20.40
2023-03-19T04:33:19.726Z,16.70
2023-03-19T04:35:50.338Z,21.90
2023-03-19T04:38:20.496Z,18.80
2023-03-19T04:40:51.732Z,19.50
2023-03-19T04:43:22.317Z,20.40
2023-03-19T04:45:52.914Z,20.70
2023-03-19T04:48:23.466Z,22.00
2023-03-19T04:50:56.945Z,21.70
2023-03-19T04:53:27.159Z,20.30
2023-03-19T04:55:57.455Z,31.00
2023-03-19T04:58:27.868Z,29.50
2023-03-19T05:00:58.419Z,32.10
2023-03-19T05:03:28.701Z,35.30
2023-03-19T05:05:59.512Z,38.90
2023-03-19T05:08:30.182Z,35.10
2023-03-19T05:11:00.891Z,37.70
2023-03-19T05:13:32.452Z,43.60
2023-03-19T05:16:03.439Z,33.50
2023-03-19T05:18:34.463Z,41.80
2023-03-19T05:21:05.957Z,40.00
2023-03-19T05:23:36.696Z,40.00
2023-03-19T05:26:08.280Z,38.90
2023-03-19T05:28:39.644Z,58.40
2023-03-19T05:31:10.577Z,36.40
2023-03-19T05:33:41.694Z,39.00
2023-03-19T05:36:12.218Z,42.20
2023-03-19T05:38:42.445Z,46.00
2023-03-19T05:41:13.001Z,48.60
2023-03-19T05:43:43.403Z,71.40
2023-03-19T05:46:13.856Z,44.00
2023-03-19T05:48:43.984Z,51.00
2023-03-19T05:51:14.240Z,44.50
2023-03-19T05:53:44.716Z,48.00
2023-03-19T05:56:15.238Z,43.10
2023-03-19T05:58:45.786Z,52.60
2023-03-19T06:01:16.280Z,57.20
2023-03-19T06:03:47.132Z,54.60
2023-03-19T06:06:17.899Z,49.00
2023-03-19T06:08:48.434Z,47.80
2023-03-19T06:11:19.173Z,46.10
2023-03-19T06:13:49.645Z,52.50
2023-03-19T06:16:20.749Z,43.50
2023-03-19T06:18:51.315Z,48.60
2023-03-19T06:21:21.978Z,45.90
2023-03-19T06:23:52.382Z,53.20
2023-03-19T06:26:23.071Z,52.00
2023-03-19T06:28:53.347Z,62.30
2023-03-19T06:31:23.957Z,59.70
2023-03-19T06:33:54.115Z,66.60
2023-03-19T06:36:24.630Z,48.50
2023-03-19T06:38:56.008Z,62.00
2023-03-19T06:41:26.399Z,56.50
2023-03-19T06:43:56.638Z,58.10
2023-03-19T06:46:26.968Z,54.60
2023-03-19T06:48:57.146Z,57.60
2023-03-19T06:51:27.716Z,59.00
2023-03-19T06:53:57.941Z,55.90
2023-03-19T06:56:29.973Z,54.20
2023-03-19T06:59:00.647Z,53.20
2023-03-19T07:01:31.883Z,46.30
2023-03-19T07:04:02.189Z,45.50
2023-03-19T07:06:33.453Z,46.50
2023-03-19T07:09:04.148Z,51.20
2023-03-19T07:11:35.911Z,44.20
2023-03-19T07:14:06.497Z,46.20
2023-03-19T07:16:37.321Z,48.40
2023-03-19T07:19:07.595Z,58.00
2023-03-19T07:21:37.940Z,73.30
2023-03-19T07:24:08.571Z,42.30
2023-03-19T07:26:39.002Z,54.30
2023-03-19T07:29:09.802Z,58.30
2023-03-19T07:31:40.540Z,43.70
2023-03-19T07:34:11.102Z,43.90
2023-03-19T07:36:41.871Z,44.60
2023-03-19T07:39:12.368Z,45.60
2023-03-19T07:41:44.496Z,44.50
2023-03-19T07:44:15.393Z,43.00
2023-03-19T07:46:45.887Z,44.20
2023-03-19T07:49:16.238Z,52.30
2023-03-19T07:51:46.752Z,47.80
2023-03-19T07:54:17.125Z,44.80
2023-03-19T07:56:47.948Z,37.40
2023-03-19T07:59:18.715Z,41.90
2023-03-19T08:01:49.194Z,47.00
2023-03-19T08:04:23.465Z,54.10
2023-03-19T08:06:55.818Z,48.00
2023-03-19T08:09:27.856Z,57.40
2023-03-19T08:11:58.089Z,37.30
2023-03-19T08:14:29.039Z,49.50
2023-03-19T08:16:59.585Z,44.70
2023-03-19T08:19:30.277Z,39.90
2023-03-19T08:22:00.788Z,39.60
2023-03-19T08:24:30.994Z,44.40
2023-03-19T08:27:01.472Z,37.50
2023-03-19T08:29:31.994Z,40.50
2023-03-19T08:32:02.273Z,44.90
2023-03-19T08:34:32.997Z,38.20
2023-03-19T08:37:03.757Z,36.80
2023-03-19T08:39:34.726Z,34.10
2023-03-19T08:42:05.792Z,32.70
2023-03-19T08:44:36.090Z,32.10
2023-03-19T08:47:06.829Z,33.80
2023-03-19T08:49:37.569Z,30.50
2023-03-19T08:52:08.965Z,35.80
2023-03-19T08:54:39.140Z,34.10
2023-03-19T08:57:09.755Z,34.10
2023-03-19T08:59:40.340Z,32.60
2023-03-19T09:02:11.560Z,34.50
2023-03-19T09:04:43.522Z,31.90
2023-03-19T09:07:15.646Z,30.90
2023-03-19T09:09:46.977Z,32.20
2023-03-19T09:12:18.703Z,36.80
2023-03-19T09:14:49.568Z,30.70
2023-03-19T09:17:19.719Z,31.80
2023-03-19T09:19:50.225Z,36.50
2023-03-19T09:22:20.729Z,39.40
2023-03-19T09:24:51.449Z,37.70
2023-03-19T09:27:21.906Z,30.40
2023-03-19T09:29:52.713Z,34.20
2023-03-19T09:32:23.930Z,32.40
2023-03-19T09:34:54.956Z,35.60
2023-03-19T09:37:25.711Z,29.00
2023-03-19T09:39:56.254Z,32.80
2023-03-19T09:42:39.198Z,33.30
2023-03-19T09:45:15.133Z,33.40
2023-03-19T09:47:45.518Z,34.80
2023-03-19T09:50:17.994Z,34.50
2023-03-19T09:52:51.934Z,41.70
2023-03-19T09:55:33.237Z,31.80
2023-03-19T09:58:06.461Z,29.20
2023-03-19T10:00:38.515Z,29.10
2023-03-19T10:03:21.666Z,36.50
2023-03-19T10:05:55.104Z,32.60
2023-03-19T10:08:42.194Z,29.90
2023-03-19T10:11:25.287Z,30.00
2023-03-19T10:14:02.474Z,27.60
2023-03-19T10:16:33.005Z,27.60
2023-03-19T10:19:06.222Z,28.00
2023-03-19T10:21:40.018Z,29.60
2023-03-19T10:24:13.993Z,28.40
2023-03-19T10:26:47.026Z,28.10
2023-03-19T10:29:20.535Z,34.50
2023-03-19T10:31:56.048Z,33.10
2023-03-19T10:34:31.716Z,32.80
2023-03-19T10:37:03.683Z,31.20
2023-03-19T10:39:35.642Z,29.90
2023-03-19T10:42:21.287Z,29.00
2023-03-19T10:44:53.849Z,34.20
2023-03-19T10:47:27.637Z,36.10
2023-03-19T10:49:58.859Z,33.00
2023-03-19T10:52:31.284Z,30.30
2023-03-19T10:55:06.519Z,41.40
2023-03-19T10:57:36.869Z,31.10
2023-03-19T11:00:15.610Z,37.00
2023-03-19T11:02:50.185Z,35.50
2023-03-19T11:05:29.890Z,30.90
2023-03-19T11:08:04.285Z,32.80
2023-03-19T11:10:35.783Z,39.40
2023-03-19T11:13:07.981Z,38.10
2023-03-19T11:15:40.266Z,33.70
2023-03-19T11:18:20.280Z,33.10
2023-03-19T11:20:54.920Z,36.20
2023-03-19T11:23:29.438Z,33.50
2023-03-19T11:26:02.748Z,31.20
2023-03-19T11:28:33.676Z,45.50
2023-03-19T11:31:09.924Z,40.40
2023-03-19T11:33:57.472Z,29.80
2023-03-19T11:36:31.511Z,32.00
2023-03-19T11:39:16.498Z,36.70
2023-03-19T11:41:57.662Z,33.90
2023-03-19T11:44:32.274Z,32.80
2023-03-19T11:47:17.788Z,34.20
2023-03-19T11:50:05.474Z,31.10
2023-03-19T11:52:40.117Z,39.60
2023-03-19T11:55:21.051Z,29.00
2023-03-19T11:58:16.478Z,32.50
2023-03-19T12:00:50.330Z,32.40
2023-03-19T12:03:59.203Z,27.70
2023-03-19T12:06:38.460Z,27.20
2023-03-19T12:09:15.487Z,23.30
2023-03-19T12:11:50.126Z,28.80
2023-03-19T12:14:30.631Z,24.40
2023-03-19T12:17:08.328Z,26.80
2023-03-19T12:20:16.781Z,25.50
2023-03-19T12:22:57.396Z,27.80
2023-03-19T12:25:44.348Z,28.40
2023-03-19T12:28:19.906Z,30.50
2023-03-19T12:30:59.360Z,30.60
2023-03-19T12:33:37.596Z,31.80
2023-03-19T12:36:12.586Z,29.90
2023-03-19T12:38:45.832Z,25.20
2023-03-19T12:41:21.362Z,28.40
2023-03-19T12:43:56.030Z,38.90
2023-03-19T12:46:29.609Z,28.10
2023-03-19T12:49:03.565Z,30.90
2023-03-19T12:51:36.892Z,27.10
2023-03-19T12:54:11.975Z,30.40
2023-03-19T12:56:47.357Z,29.10
2023-03-19T12:59:20.721Z,22.50
2023-03-19T13:01:54.368Z,25.50
2023-03-19T13:04:27.774Z,24.60
2023-03-19T13:07:02.063Z,24.70
2023-03-19T13:09:37.335Z,22.40
2023-03-19T13:12:11.045Z,25.20
2023-03-19T13:14:49.875Z,26.20
2023-03-19T13:17:27.163Z,27.30
2023-03-19T13:19:57.541Z,24.70
2023-03-19T13:22:29.646Z,28.90
2023-03-19T13:25:00.983Z,30.10
2023-03-19T13:27:33.849Z,28.70
2023-03-19T13:30:17.506Z,31.30
2023-03-19T13:32:49.690Z,27.70
2023-03-19T13:35:29.244Z,26.80
2023-03-19T13:38:01.575Z,24.30
2023-03-19T13:40:46.656Z,24.80
2023-03-19T13:43:49.238Z,27.20
2023-03-19T13:46:45.453Z,24.90
2023-03-19T13:49:28.136Z,26.30
2023-03-19T13:52:01.231Z,25.00
2023-03-19T13:54:36.851Z,30.60
2023-03-19T13:57:22.406Z,30.60
2023-03-19T13:59:52.694Z,29.10
2023-03-19T14:02:48.874Z,29.00
2023-03-19T14:05:21.149Z,31.80
2023-03-19T14:07:54.473Z,28.80
2023-03-19T14:10:27.827Z,26.80
2023-03-19T14:13:07.750Z,28.20
2023-03-19T14:15:41.317Z,32.90
2023-03-19T14:18:18.443Z,30.40
2023-03-19T14:20:59.421Z,31.90
2023-03-19T14:23:40.628Z,28.90
2023-03-19T14:26:20.113Z,31.20
2023-03-19T14:29:03.590Z,33.40
2023-03-19T14:31:42.314Z,29.10
2023-03-19T14:34:21.329Z,33.30
2023-03-19T14:36:58.732Z,29.00
2023-03-19T14:39:31.386Z,34.00
2023-03-19T14:42:05.991Z,35.60
2023-03-19T14:45:06.945Z,27.80
2023-03-19T14:48:06.450Z,31.40
2023-03-19T14:51:10.683Z,29.80
2023-03-19T14:53:43.329Z,31.10
2023-03-19T14:56:15.889Z,40.20
2023-03-19T14:58:54.132Z,32.30
2023-03-19T15:01:26.882Z,35.60
2023-03-19T15:03:59.853Z,35.80
2023-03-19T15:06:34.850Z,31.60
2023-03-19T15:09:08.427Z,36.00
2023-03-19T15:11:56.486Z,31.40
2023-03-19T15:14:42.975Z,44.40
2023-03-19T15:17:19.499Z,37.20
2023-03-19T15:19:49.849Z,48.90
2023-03-19T15:22:26.703Z,45.80
2023-03-19T15:27:27.216Z,35.20
2023-03-19T15:30:07.308Z,34.10
2023-03-19T15:32:54.274Z,29.90
2023-03-19T15:35:31.937Z,39.60
2023-03-19T15:38:04.398Z,34.60
2023-03-19T15:40:36.533Z,32.70
2023-03-19T15:43:07.008Z,45.50
2023-03-19T15:45:37.678Z,30.00
2023-03-19T15:48:10.441Z,38.20
2023-03-19T15:50:44.211Z,37.40
2023-03-19T15:53:17.485Z,35.70
2023-03-19T15:55:50.358Z,32.50
2023-03-19T15:58:22.936Z,36.00
2023-03-19T16:00:55.075Z,40.90
2023-03-19T16:03:29.503Z,36.20
2023-03-19T16:06:04.678Z,37.60
2023-03-19T16:08:35.353Z,43.20
2023-03-19T16:11:28.677Z,52.50
2023-03-19T16:13:59.820Z,46.90
2023-03-19T16:16:33.370Z,58.10
2023-03-19T16:19:06.048Z,54.40
2023-03-19T16:21:39.201Z,48.60
2023-03-19T16:24:19.767Z,47.20
2023-03-19T16:26:50.647Z,53.70
2023-03-19T16:29:23.492Z,49.30
2023-03-19T16:31:57.501Z,44.20
2023-03-19T16:34:35.165Z,42.70
2023-03-19T16:37:35.106Z,48.10
2023-03-19T16:40:16.320Z,51.60
2023-03-19T16:42:48.414Z,51.20
2023-03-19T16:45:26.202Z,49.80
2023-03-19T16:47:57.709Z,43.50
2023-03-19T16:50:32.528Z,44.20
2023-03-19T16:53:04.527Z,49.40
2023-03-19T16:55:36.341Z,44.30
2023-03-19T16:58:11.270Z,54.60
2023-03-19T17:00:43.531Z,49.80
2023-03-19T17:03:15.671Z,45.80
2023-03-19T17:05:47.013Z,46.50
2023-03-19T17:08:17.901Z,43.70
2023-03-19T17:10:50.505Z,43.30
2023-03-19T17:13:23.276Z,42.50
2023-03-19T17:15:54.732Z,44.20
2023-03-19T17:18:27.149Z,47.40
2023-03-19T17:20:59.472Z,44.50
2023-03-19T17:23:30.704Z,48.70
2023-03-19T17:26:01.463Z,45.70
2023-03-19T17:28:35.392Z,39.80
2023-03-19T17:31:06.001Z,49.80
2023-03-19T17:33:36.706Z,48.60
2023-03-19T17:36:09.796Z,50.70
2023-03-19T17:38:41.053Z,52.30
2023-03-19T17:41:16.452Z,55.10
2023-03-19T17:43:47.042Z,51.00
2023-03-19T17:46:20.962Z,50.40
2023-03-19T17:48:51.803Z,58.10
2023-03-19T17:51:24.195Z,53.20
2023-03-19T17:53:55.335Z,55.40
2023-03-19T17:56:27.633Z,54.30
2023-03-19T17:58:58.089Z,55.30
2023-03-19T18:01:29.598Z,50.50
2023-03-19T18:04:01.953Z,48.30
2023-03-19T18:06:34.222Z,56.00
2023-03-19T18:09:05.506Z,54.00
2023-03-19T18:11:36.939Z,51.20
2023-03-19T18:14:07.416Z,52.90
2023-03-19T18:16:37.910Z,57.30
2023-03-19T18:19:20.801Z,56.80
2023-03-19T18:21:51.191Z,55.60
2023-03-19T18:24:21.624Z,57.20
2023-03-19T18:26:52.186Z,54.40
2023-03-19T18:29:22.681Z,48.80
2023-03-19T18:31:53.064Z,64.90
2023-03-19T18:34:23.416Z,49.20
2023-03-19T18:36:53.922Z,56.10
2023-03-19T18:39:24.552Z,63.00
2023-03-19T18:41:55.372Z,49.10
2023-03-19T18:44:25.638Z,58.40
2023-03-19T18:46:56.115Z,56.20
2023-03-19T18:49:28.160Z,59.70
2023-03-19T18:52:03.064Z,52.20
2023-03-19T18:54:33.948Z,52.80
2023-03-19T18:57:04.699Z,54.00
2023-03-19T18:59:35.423Z,48.80
2023-03-19T19:02:31.320Z,51.80
2023-03-19T19:05:02.268Z,55.80
2023-03-19T19:07:32.712Z,53.30
2023-03-19T19:10:04.916Z,60.10
2023-03-19T19:12:38.195Z,54.60
2023-03-19T19:15:15.728Z,49.50
2023-03-19T19:17:46.764Z,48.80
2023-03-19T19:20:22.292Z,65.60
2023-03-19T19:22:53.270Z,58.20
2023-03-19T19:25:25.319Z,48.00
2023-03-19T19:27:59.063Z,62.20
2023-03-19T19:30:30.088Z,50.80
2023-03-19T19:33:00.839Z,59.80
2023-03-19T19:35:32.813Z,61.70
2023-03-19T19:38:03.217Z,61.10
2023-03-19T19:40:33.942Z,61.40
2023-03-19T19:43:04.491Z,57.40
2023-03-19T19:45:37.253Z,63.70
2023-03-19T19:48:14.808Z,54.30
2023-03-19T19:50:45.951Z,59.80
2023-03-19T19:53:16.633Z,59.80
2023-03-19T19:55:47.217Z,61.10
2023-03-19T19:58:20.659Z,62.80
2023-03-19T20:01:02.765Z,57.30
2023-03-19T20:03:34.779Z,50.70
2023-03-19T20:06:06.120Z,59.90
2023-03-19T20:08:36.796Z,57.00
2023-03-19T20:11:16.788Z,52.80
2023-03-19T20:13:51.397Z,65.70
2023-03-19T20:16:23.331Z,54.00
2023-03-19T20:18:55.250Z,57.50
2023-03-19T20:21:25.948Z,52.20
2023-03-19T20:23:58.596Z,57.80
2023-03-19T20:26:31.138Z,51.40
2023-03-19T20:29:01.488Z,52.70
2023-03-19T20:31:32.732Z,50.20
2023-03-19T20:34:03.211Z,52.10
2023-03-19T20:36:33.708Z,59.60
2023-03-19T20:39:04.684Z,50.80
2023-03-19T20:41:35.221Z,50.70
2023-03-19T20:44:07.158Z,47.90
2023-03-19T20:46:38.952Z,44.90
2023-03-19T20:49:14.977Z,43.80
2023-03-19T20:51:46.170Z,46.40
2023-03-19T20:54:17.060Z,42.80
2023-03-19T20:56:47.757Z,46.00
2023-03-19T20:59:17.970Z,46.80
2023-03-19T21:01:48.367Z,54.30
2023-03-19T21:04:20.784Z,46.90
2023-03-19T21:06:53.684Z,49.80
2023-03-19T21:09:24.725Z,44.60
2023-03-19T21:11:55.151Z,47.20
2023-03-19T21:14:26.671Z,49.10
2023-03-19T21:16:57.064Z,49.90
2023-03-19T21:19:28.373Z,51.40
2023-03-19T21:21:58.584Z,59.00
2023-03-19T21:24:29.241Z,47.20
2023-03-19T21:27:02.386Z,57.40
2023-03-19T21:29:35.675Z,53.70
2023-03-19T21:32:11.726Z,48.20
2023-03-19T21:34:42.267Z,52.80
2023-03-19T21:37:14.106Z,55.50
2023-03-19T21:39:45.193Z,48.90
2023-03-19T21:42:17.931Z,53.80
2023-03-19T21:44:48.828Z,53.00
2023-03-19T21:47:21.871Z,49.80
2023-03-19T21:49:52.278Z,49.50
2023-03-19T21:52:22.448Z,53.30
2023-03-19T21:54:53.430Z,46.30
2023-03-19T21:57:23.860Z,51.80
2023-03-19T21:59:53.966Z,42.20
2023-03-19T22:02:41.521Z,42.60
2023-03-19T22:05:26.204Z,44.40
2023-03-19T22:07:57.120Z,43.70
2023-03-19T22:10:29.869Z,48.90
2023-03-19T22:13:00.343Z,46.10
2023-03-19T22:15:35.599Z,50.60
2023-03-19T22:18:07.874Z,42.60
2023-03-19T22:20:38.572Z,44.50
2023-03-19T22:23:08.861Z,40.90
2023-03-19T22:25:42.117Z,41.50
2023-03-19T22:28:17.887Z,44.30
2023-03-19T22:30:48.526Z,37.90
2023-03-19T22:33:20.057Z,40.20
2023-03-19T22:35:51.322Z,38.00
2023-03-19T22:38:23.158Z,47.00
2023-03-19T22:40:55.087Z,37.00
2023-03-19T22:43:30.663Z,38.20
2023-03-19T22:46:04.088Z,40.20
2023-03-19T22:48:34.394Z,39.70
2023-03-19T22:51:04.896Z,45.70
2023-03-19T22:53:36.600Z,40.70
2023-03-19T22:56:07.672Z,42.60
2023-03-19T22:58:37.931Z,37.10
2023-03-19T23:01:27.492Z,41.60
2023-03-19T23:03:57.930Z,39.70
2023-03-19T23:06:31.025Z,39.20
2023-03-19T23:09:01.844Z,44.10
2023-03-19T23:11:32.279Z,38.40
2023-03-19T23:14:03.225Z,39.50
2023-03-19T23:16:33.529Z,39.30
2023-03-19T23:19:03.973Z,43.60
2023-03-19T23:21:34.166Z,38.20
2023-03-19T23:24:06.367Z,41.60
2023-03-19T23:26:36.795Z,43.80
2023-03-19T23:29:08.651Z,38.20
2023-03-19T23:31:39.160Z,39.00
2023-03-19T23:34:11.662Z,40.00
2023-03-19T23:36:42.332Z,40.50
2023-03-19T23:39:13.849Z,42.30
2023-03-19T23:41:48.035Z,40.90
2023-03-19T23:44:20.397Z,37.80
2023-03-19T23:46:51.351Z,37.20
2023-03-19T23:49:28.403Z,38.70
2023-03-19T23:51:58.775Z,44.80
2023-03-19T23:54:32.315Z,47.20
2023-03-19T23:57:04.208Z,38.30
2023-03-19T23:59:36.715Z,40.30
